createdAt,value
2023-04-13T00:01:55.827Z,45.75
2023-04-13T00:04:24.122Z,45.80
2023-04-13T00:06:52.328Z,41.85
2023-04-13T00:09:20.340Z,35.63
2023-04-13T00:11:48.607Z,42.67
2023-04-13T00:14:16.648Z,39.03
2023-04-13T00:16:45.953Z,40.80
2023-04-13T00:19:14.288Z,40.13
2023-04-13T00:21:42.371Z,41.08
2023-04-13T00:24:10.636Z,43.92
2023-04-13T00:27:16.522Z,46.42
2023-04-13T00:29:44.707Z,36.90
2023-04-13T00:32:12.757Z,40.42
2023-04-13T00:34:41.014Z,45.65
2023-04-13T00:37:09.104Z,38.92
2023-04-13T00:39:37.385Z,39.85
2023-04-13T00:42:07.434Z,40.88
2023-04-13T00:44:36.463Z,34.70
2023-04-13T00:47:05.298Z,43.03
2023-04-13T00:49:35.169Z,35.13
2023-04-13T00:52:03.933Z,31.20
2023-04-13T00:54:33.402Z,40.55
2023-04-13T00:57:02.259Z,47.63
2023-04-13T00:59:30.464Z,45.97
2023-04-13T01:01:58.754Z,52.92
2023-04-13T01:04:28.099Z,48.47
2023-04-13T01:07:07.669Z,47.50
2023-04-13T01:09:40.766Z,50.08
2023-04-13T01:12:19.561Z,51.17
2023-04-13T01:15:12.664Z,54.88
2023-04-13T01:17:46.420Z,55.45
2023-04-13T01:22:56.782Z,53.17
2023-04-13T01:25:41.654Z,42.72
2023-04-13T01:28:17.298Z,41.13
2023-04-13T01:30:49.975Z,40.65
2023-04-13T01:33:19.472Z,31.25
2023-04-13T01:35:49.270Z,43.17
2023-04-13T01:38:25.933Z,46.03
2023-04-13T01:40:56.914Z,38.00
2023-04-13T01:43:28.284Z,42.42
2023-04-13T01:46:16.723Z,45.20
2023-04-13T01:48:57.899Z,48.45
2023-04-13T01:51:37.791Z,36.95
2023-04-13T01:54:16.139Z,54.42
2023-04-13T01:56:47.362Z,56.45
2023-04-13T01:59:15.688Z,48.08
2023-04-13T02:01:44.578Z,53.25
2023-04-13T02:04:13.286Z,58.10
2023-04-13T02:06:43.835Z,53.33
2023-04-13T02:09:12.330Z,49.17
2023-04-13T02:11:40.375Z,43.35
2023-04-13T02:14:09.172Z,46.28
2023-04-13T02:16:37.641Z,50.42
2023-04-13T02:19:05.769Z,51.92
2023-04-13T02:21:34.340Z,47.47
2023-04-13T02:24:02.696Z,48.65
2023-04-13T02:26:30.775Z,43.45
2023-04-13T02:28:59.046Z,42.08
2023-04-13T02:31:27.307Z,41.85
2023-04-13T02:33:55.503Z,51.75
2023-04-13T02:36:25.335Z,51.45
2023-04-13T02:38:58.110Z,36.75
2023-04-13T02:41:29.792Z,34.22
2023-04-13T02:43:59.154Z,44.25
2023-04-13T02:46:32.781Z,42.10
2023-04-13T02:49:13.165Z,38.50
2023-04-13T02:51:51.964Z,41.25
2023-04-13T02:54:26.570Z,28.13
2023-04-13T02:56:54.923Z,35.42
2023-04-13T02:59:23.335Z,31.58
2023-04-13T03:01:51.783Z,28.75
2023-04-13T03:04:23.134Z,27.30
2023-04-13T03:06:52.496Z,27.25
2023-04-13T03:09:21.428Z,24.35
2023-04-13T03:11:54.641Z,26.73
2023-04-13T03:14:24.755Z,37.88
2023-04-13T03:16:58.670Z,27.23
2023-04-13T03:19:35.214Z,26.95
2023-04-13T03:22:03.645Z,22.00
2023-04-13T03:24:33.166Z,32.65
2023-04-13T03:27:06.364Z,28.35
2023-04-13T03:29:43.760Z,25.58
2023-04-13T03:32:16.880Z,26.02
2023-04-13T03:34:49.541Z,21.52
2023-04-13T03:37:17.989Z,24.85
2023-04-13T03:39:46.594Z,24.17
2023-04-13T03:42:19.241Z,26.02
2023-04-13T03:44:54.065Z,23.98
2023-04-13T03:47:22.412Z,27.77
2023-04-13T03:49:50.980Z,29.92
2023-04-13T03:52:19.246Z,22.40
2023-04-13T03:54:54.788Z,16.10
2023-04-13T03:57:23.394Z,23.13
2023-04-13T03:59:51.773Z,15.35
2023-04-13T04:02:28.566Z,24.40
2023-04-13T04:04:56.940Z,18.95
2023-04-13T04:07:25.099Z,22.88
2023-04-13T04:09:54.232Z,25.08
2023-04-13T04:12:25.149Z,24.00
2023-04-13T04:14:53.656Z,23.63
2023-04-13T04:17:26.778Z,18.63
2023-04-13T04:19:55.782Z,17.95
2023-04-13T04:22:26.670Z,25.40
2023-04-13T04:24:54.985Z,19.88
2023-04-13T04:27:23.292Z,21.42
2023-04-13T04:29:51.795Z,21.85
2023-04-13T04:32:27.579Z,19.90
2023-04-13T04:34:57.208Z,25.23
2023-04-13T04:37:27.053Z,21.00
2023-04-13T04:40:08.933Z,20.77
2023-04-13T04:42:38.046Z,26.23
2023-04-13T04:45:11.375Z,20.50
2023-04-13T04:47:44.046Z,18.42
2023-04-13T04:50:17.946Z,18.33
2023-04-13T04:52:50.635Z,19.08
2023-04-13T04:55:22.649Z,20.13
2023-04-13T04:57:51.156Z,16.65
2023-04-13T05:00:21.912Z,20.48
2023-04-13T05:03:13.330Z,19.63
2023-04-13T05:05:47.032Z,14.77
2023-04-13T05:08:21.617Z,18.58
2023-04-13T05:10:51.197Z,19.05
2023-04-13T05:13:20.573Z,18.33
2023-04-13T05:16:00.603Z,32.08
2023-04-13T05:18:32.356Z,28.10
2023-04-13T05:21:00.903Z,20.75
2023-04-13T05:23:29.652Z,18.63
2023-04-13T05:26:06.398Z,27.17
2023-04-13T05:28:34.699Z,26.42
2023-04-13T05:31:07.559Z,19.33
2023-04-13T05:33:39.316Z,28.13
2023-04-13T05:36:08.425Z,29.20
2023-04-13T05:38:38.069Z,26.63
2023-04-13T05:41:06.820Z,26.88
2023-04-13T05:43:36.477Z,21.52
2023-04-13T05:46:05.733Z,34.67
2023-04-13T05:48:34.652Z,18.83
2023-04-13T05:51:07.316Z,22.50
2023-04-13T05:53:36.929Z,25.55
2023-04-13T05:56:05.561Z,18.75
2023-04-13T05:58:35.385Z,31.38
2023-04-13T06:01:15.496Z,24.52
2023-04-13T06:03:44.201Z,32.20
2023-04-13T06:06:12.756Z,31.73
2023-04-13T06:08:41.415Z,23.98
2023-04-13T06:11:09.688Z,29.15
2023-04-13T06:13:38.535Z,26.15
2023-04-13T06:16:07.163Z,26.77
2023-04-13T06:18:35.407Z,25.13
2023-04-13T06:21:04.412Z,29.33
2023-04-13T06:23:32.772Z,28.17
2023-04-13T06:26:05.830Z,32.10
2023-04-13T06:28:54.491Z,25.42
2023-04-13T06:31:23.713Z,14.90
2023-04-13T06:33:52.964Z,27.15
2023-04-13T06:36:26.624Z,24.65
2023-04-13T06:38:57.335Z,26.88
2023-04-13T06:41:26.934Z,30.75
2023-04-13T06:44:11.720Z,25.67
2023-04-13T06:47:08.870Z,27.10
2023-04-13T06:49:37.563Z,22.90
2023-04-13T06:52:07.301Z,27.00
2023-04-13T06:54:36.290Z,22.42
2023-04-13T06:57:17.331Z,27.35
2023-04-13T06:59:45.596Z,20.85
2023-04-13T07:02:14.090Z,14.90
2023-04-13T07:04:42.434Z,25.05
2023-04-13T07:07:11.330Z,31.30
2023-04-13T07:09:39.658Z,33.25
2023-04-13T07:12:08.327Z,23.10
2023-04-13T07:14:39.958Z,35.50
2023-04-13T07:17:13.170Z,33.95
2023-04-13T07:19:46.915Z,33.08
2023-04-13T07:22:16.241Z,23.80
2023-04-13T07:24:47.116Z,27.42
2023-04-13T07:27:20.822Z,26.50
2023-04-13T07:29:52.585Z,25.50
2023-04-13T07:32:30.240Z,31.27
2023-04-13T07:34:59.249Z,20.60
2023-04-13T07:37:27.626Z,28.35
2023-04-13T07:39:56.367Z,29.83
2023-04-13T07:42:26.568Z,28.63
2023-04-13T07:44:58.381Z,20.65
2023-04-13T07:47:29.003Z,23.90
2023-04-13T07:50:03.176Z,25.67
2023-04-13T07:52:31.492Z,31.25
2023-04-13T07:54:59.829Z,33.88
2023-04-13T07:57:28.847Z,31.58
2023-04-13T08:00:01.682Z,30.30
2023-04-13T08:02:31.277Z,19.85
2023-04-13T08:05:00.684Z,23.42
2023-04-13T08:07:32.126Z,24.00
2023-04-13T08:10:01.615Z,27.30
2023-04-13T08:12:30.216Z,24.58
2023-04-13T08:14:58.640Z,34.35
2023-04-13T08:17:27.208Z,25.58
2023-04-13T08:19:55.722Z,24.17
2023-04-13T08:22:24.335Z,20.70
2023-04-13T08:25:44.196Z,18.65
2023-04-13T08:28:12.723Z,21.23
2023-04-13T08:30:41.843Z,30.13
2023-04-13T08:33:10.558Z,24.58
2023-04-13T08:35:39.139Z,25.23
2023-04-13T08:38:09.726Z,23.38
2023-04-13T08:43:20.096Z,28.13
2023-04-13T08:45:49.475Z,26.83
2023-04-13T08:48:18.132Z,24.92
2023-04-13T08:50:48.398Z,25.83
2023-04-13T08:53:17.861Z,29.92
2023-04-13T08:55:48.182Z,23.33
2023-04-13T08:58:19.754Z,24.48
2023-04-13T09:00:48.629Z,32.33
2023-04-13T09:03:26.371Z,24.80
2023-04-13T09:06:04.052Z,29.38
2023-04-13T09:08:36.807Z,33.53
2023-04-13T09:11:08.682Z,19.60
2023-04-13T09:13:37.239Z,31.83
2023-04-13T09:16:08.772Z,35.33
2023-04-13T09:18:56.424Z,36.20
2023-04-13T09:21:36.943Z,35.53
2023-04-13T09:24:06.746Z,40.22
2023-04-13T09:26:48.545Z,35.20
2023-04-13T09:29:18.902Z,36.35
2023-04-13T09:31:48.505Z,32.03
2023-04-13T09:34:30.022Z,51.08
2023-04-13T09:37:00.973Z,40.83
2023-04-13T09:41:58.291Z,35.65
2023-04-13T09:44:26.607Z,42.20
2023-04-13T09:47:02.601Z,32.78
2023-04-13T09:49:42.991Z,31.50
2023-04-13T09:52:24.602Z,83.43
2023-04-13T09:54:54.910Z,30.58
2023-04-13T09:57:30.740Z,36.35
2023-04-13T10:00:00.373Z,29.75
2023-04-13T10:02:29.215Z,31.15
2023-04-13T10:04:58.327Z,30.48
2023-04-13T10:07:26.454Z,35.85
2023-04-13T10:09:55.133Z,28.90
2023-04-13T10:12:27.499Z,36.30
2023-04-13T10:15:16.722Z,38.72
2023-04-13T10:17:57.157Z,61.95
2023-04-13T10:20:27.292Z,37.53
2023-04-13T10:22:56.569Z,63.70
2023-04-13T10:25:33.058Z,49.33
2023-04-13T10:28:02.571Z,34.35
2023-04-13T10:30:30.862Z,40.60
2023-04-13T10:33:03.939Z,39.63
2023-04-13T10:35:35.538Z,36.33
2023-04-13T10:38:04.035Z,39.00
2023-04-13T10:40:43.681Z,36.55
2023-04-13T10:43:12.079Z,46.10
2023-04-13T10:45:40.279Z,34.50
2023-04-13T10:48:08.753Z,34.88
2023-04-13T10:50:37.012Z,28.58
2023-04-13T10:53:06.698Z,28.58
2023-04-13T10:55:35.982Z,37.20
2023-04-13T10:58:15.411Z,48.03
2023-04-13T11:00:46.943Z,41.97
2023-04-13T11:03:16.992Z,36.22
2023-04-13T11:05:47.691Z,44.58
2023-04-13T11:08:20.329Z,39.63
2023-04-13T11:10:53.025Z,41.28
2023-04-13T11:13:22.505Z,36.08
2023-04-13T11:15:50.691Z,44.08
2023-04-13T11:18:28.500Z,32.45
2023-04-13T11:21:00.272Z,44.78
2023-04-13T11:23:28.931Z,54.85
2023-04-13T11:26:00.499Z,56.22
2023-04-13T11:28:48.955Z,58.17
2023-04-13T11:31:17.184Z,33.40
2023-04-13T11:33:49.920Z,57.40
2023-04-13T11:36:18.330Z,41.97
2023-04-13T11:38:48.353Z,32.45
2023-04-13T11:41:17.436Z,37.13
2023-04-13T11:43:46.681Z,46.75
2023-04-13T11:46:15.541Z,47.83
2023-04-13T11:48:44.494Z,33.53
2023-04-13T11:51:16.131Z,44.72
2023-04-13T11:53:44.633Z,31.88
2023-04-13T11:56:13.308Z,39.25
2023-04-13T11:58:41.740Z,47.40
2023-04-13T12:03:53.358Z,33.27
2023-04-13T12:06:26.169Z,48.92
2023-04-13T12:09:10.320Z,37.40
2023-04-13T12:11:48.688Z,37.08
2023-04-13T12:19:29.980Z,30.60
2023-04-13T12:22:00.349Z,40.30
2023-04-13T12:24:34.227Z,41.75
2023-04-13T12:29:38.828Z,36.80
2023-04-13T12:32:16.221Z,42.05
2023-04-13T12:34:44.960Z,39.28
2023-04-13T12:37:13.207Z,32.47
2023-04-13T12:39:43.034Z,33.20
2023-04-13T12:42:11.404Z,29.92
2023-04-13T12:44:39.565Z,38.10
2023-04-13T12:47:07.973Z,36.28
2023-04-13T12:49:36.235Z,28.25
2023-04-13T12:52:04.614Z,36.60
2023-04-13T12:54:32.892Z,31.33
2023-04-13T12:57:01.174Z,32.60
2023-04-13T12:59:29.346Z,26.52
2023-04-13T13:01:58.748Z,40.13
2023-04-13T13:04:27.093Z,26.48
2023-04-13T13:06:55.196Z,29.85
2023-04-13T13:09:23.558Z,26.80
2023-04-13T13:11:51.908Z,39.13
2023-04-13T13:14:20.174Z,35.67
2023-04-13T13:16:48.632Z,43.75
2023-04-13T13:19:17.299Z,48.53
2023-04-13T13:21:45.633Z,27.17
2023-04-13T13:24:13.961Z,35.17
2023-04-13T13:27:07.617Z,34.05
2023-04-13T13:29:30.568Z,25.80
2023-04-13T13:31:58.686Z,27.17
2023-04-13T13:34:26.958Z,48.92
2023-04-13T13:36:55.316Z,34.35
2023-04-13T13:39:23.825Z,37.60
2023-04-13T13:41:52.852Z,27.15
2023-04-13T13:44:22.267Z,37.08
2023-04-13T13:46:50.467Z,34.97
2023-04-13T13:49:21.759Z,28.97
2023-04-13T13:52:08.454Z,36.85
2023-04-13T13:54:45.443Z,33.67
2023-04-13T13:57:13.754Z,24.27
2023-04-13T13:59:41.880Z,25.13
2023-04-13T14:02:10.338Z,32.95
2023-04-13T14:04:38.784Z,29.63
2023-04-13T14:07:07.236Z,34.63
2023-04-13T14:09:35.659Z,31.73
2023-04-13T14:12:03.971Z,40.95
2023-04-13T14:14:32.455Z,32.63
2023-04-13T14:17:00.585Z,23.67
2023-04-13T14:19:28.759Z,38.45
2023-04-13T14:21:57.203Z,30.00
2023-04-13T14:24:26.482Z,31.30
2023-04-13T14:26:55.036Z,24.83
2023-04-13T14:29:23.376Z,32.67
2023-04-13T14:31:51.490Z,32.63
2023-04-13T14:34:19.837Z,36.17
2023-04-13T14:36:50.493Z,34.05
2023-04-13T14:39:20.426Z,36.08
2023-04-13T14:41:48.533Z,32.42
2023-04-13T14:44:16.885Z,31.85
2023-04-13T14:46:45.321Z,32.42
2023-04-13T14:49:13.575Z,35.97
2023-04-13T14:51:41.945Z,34.47
2023-04-13T14:54:10.215Z,28.02
2023-04-13T14:56:38.466Z,29.50
2023-04-13T14:59:06.664Z,29.10
2023-04-13T15:01:34.966Z,30.25
2023-04-13T15:04:04.540Z,29.40
2023-04-13T15:06:32.840Z,32.92
2023-04-13T15:09:01.148Z,26.90
2023-04-13T15:11:29.528Z,33.25
2023-04-13T15:13:57.713Z,24.08
2023-04-13T15:16:26.028Z,26.75
2023-04-13T15:18:54.385Z,35.50
2023-04-13T15:21:22.694Z,36.53
2023-04-13T15:23:50.860Z,35.17
2023-04-13T15:26:22.199Z,30.55
2023-04-13T15:28:50.870Z,23.65
2023-04-13T15:31:19.012Z,23.42
2023-04-13T15:33:47.305Z,30.48
2023-04-13T15:36:16.932Z,26.90
2023-04-13T15:38:45.112Z,33.55
2023-04-13T15:41:13.357Z,31.30
2023-04-13T15:43:41.623Z,29.92
2023-04-13T15:46:09.864Z,24.33
2023-04-13T15:48:38.590Z,24.77
2023-04-13T15:51:08.910Z,47.28
2023-04-13T15:53:37.155Z,31.75
2023-04-13T15:56:09.208Z,30.52
2023-04-13T15:58:37.595Z,30.23
2023-04-13T16:01:09.741Z,26.85
2023-04-13T16:03:38.430Z,37.75
2023-04-13T16:06:07.059Z,30.30
2023-04-13T16:08:35.311Z,32.17
2023-04-13T16:11:03.425Z,30.67
2023-04-13T16:13:47.262Z,25.70
2023-04-13T16:16:17.380Z,37.97
2023-04-13T16:18:45.646Z,30.42
2023-04-13T16:21:13.802Z,24.08
2023-04-13T16:23:42.250Z,34.80
2023-04-13T16:26:10.662Z,25.95
2023-04-13T16:28:38.988Z,26.20
2023-04-13T16:31:10.023Z,31.88
2023-04-13T16:33:38.335Z,25.30
2023-04-13T16:36:06.787Z,30.73
2023-04-13T16:38:35.060Z,24.23
2023-04-13T16:41:03.157Z,29.20
2023-04-13T16:43:31.392Z,18.13
2023-04-13T16:45:59.574Z,23.90
2023-04-13T16:48:27.770Z,28.42
2023-04-13T16:51:00.017Z,22.45
2023-04-13T16:53:28.504Z,26.77
2023-04-13T16:55:56.599Z,37.00
2023-04-13T16:58:25.179Z,24.50
2023-04-13T17:00:53.832Z,29.83
2023-04-13T17:03:22.156Z,30.67
2023-04-13T17:05:50.621Z,31.63
2023-04-13T17:08:18.921Z,29.52
2023-04-13T17:10:47.031Z,32.13
2023-04-13T17:13:15.289Z,29.85
2023-04-13T17:15:43.762Z,28.88
2023-04-13T17:18:12.097Z,31.73
2023-04-13T17:20:40.410Z,25.15
2023-04-13T17:23:08.807Z,24.90
2023-04-13T17:25:37.034Z,43.10
2023-04-13T17:28:05.605Z,39.08
2023-04-13T17:30:33.954Z,29.08
2023-04-13T17:33:02.975Z,27.92
2023-04-13T17:35:31.382Z,26.60
2023-04-13T17:37:59.662Z,19.33
2023-04-13T17:40:27.895Z,38.38
2023-04-13T17:42:56.145Z,31.60
2023-04-13T17:45:24.291Z,32.08
2023-04-13T17:47:52.844Z,53.13
2023-04-13T17:50:21.099Z,158.80
2023-04-13T17:52:50.272Z,43.28
2023-04-13T17:55:18.659Z,91.05
2023-04-13T17:57:46.969Z,42.60
2023-04-13T18:00:15.714Z,31.10
2023-04-13T18:02:44.232Z,36.03
2023-04-13T18:05:12.465Z,32.92
2023-04-13T18:07:40.645Z,34.75
2023-04-13T18:10:10.062Z,61.05
2023-04-13T18:12:41.862Z,44.80
2023-04-13T18:15:10.845Z,52.78
2023-04-13T18:17:40.103Z,71.55
2023-04-13T18:20:08.987Z,49.15
2023-04-13T18:22:37.282Z,46.65
2023-04-13T18:25:05.966Z,40.40
2023-04-13T18:27:34.143Z,39.58
2023-04-13T18:30:02.737Z,45.20
2023-04-13T18:32:30.889Z,63.60
2023-04-13T18:34:59.062Z,39.20
2023-04-13T18:37:27.277Z,38.47
2023-04-13T18:39:55.644Z,34.85
2023-04-13T18:42:23.953Z,47.97
2023-04-13T18:44:52.288Z,47.72
2023-04-13T18:47:20.789Z,58.13
2023-04-13T18:49:49.876Z,54.97
2023-04-13T18:52:18.203Z,44.30
2023-04-13T18:54:46.508Z,49.95
2023-04-13T18:57:14.748Z,56.00
2023-04-13T18:59:43.116Z,50.30
2023-04-13T19:02:12.164Z,66.15
2023-04-13T19:04:40.668Z,73.72
2023-04-13T19:07:08.997Z,69.22
2023-04-13T19:09:38.095Z,72.75
2023-04-13T19:12:07.294Z,45.25
2023-04-13T19:14:35.636Z,32.75
2023-04-13T19:17:03.765Z,43.95
2023-04-13T19:19:31.957Z,37.63
2023-04-13T19:22:00.117Z,80.43
2023-04-13T19:24:28.440Z,78.25
2023-04-13T19:26:56.795Z,46.67
2023-04-13T19:29:25.278Z,51.65
2023-04-13T19:31:53.677Z,48.35
2023-04-13T19:34:22.120Z,40.83
2023-04-13T19:36:50.334Z,45.55
2023-04-13T19:39:18.597Z,52.05
2023-04-13T19:41:46.692Z,52.30
2023-04-13T19:44:15.065Z,58.75
2023-04-13T19:46:43.590Z,63.20
2023-04-13T19:49:11.833Z,39.55
2023-04-13T19:51:40.447Z,52.60
2023-04-13T19:54:08.629Z,40.55
2023-04-13T19:58:05.064Z,52.15
2023-04-13T20:00:33.274Z,42.72
2023-04-13T20:03:01.666Z,57.72
2023-04-13T20:05:30.453Z,42.13
2023-04-13T20:07:58.818Z,48.30
2023-04-13T20:10:27.123Z,43.08
2023-04-13T20:12:55.506Z,57.17
2023-04-13T20:15:23.790Z,44.50
2023-04-13T20:17:52.384Z,64.65
2023-04-13T20:20:23.266Z,69.22
2023-04-13T20:22:52.198Z,58.55
2023-04-13T20:25:20.316Z,87.97
2023-04-13T20:27:48.671Z,96.88
2023-04-13T20:30:16.847Z,98.15
2023-04-13T20:32:45.095Z,38.85
2023-04-13T20:35:13.718Z,70.60
2023-04-13T20:37:42.058Z,67.82
2023-04-13T20:40:10.184Z,86.43
2023-04-13T20:42:38.591Z,77.68
2023-04-13T20:45:07.246Z,83.32
2023-04-13T20:47:35.693Z,67.15
2023-04-13T20:50:04.786Z,90.30
2023-04-13T20:52:32.991Z,130.38
2023-04-13T20:55:01.112Z,112.10
2023-04-13T20:57:29.627Z,127.53
2023-04-13T20:59:57.803Z,90.43
2023-04-13T21:02:26.248Z,143.18
2023-04-13T21:04:54.672Z,166.50
2023-04-13T21:07:23.008Z,62.10
2023-04-13T21:09:51.173Z,90.55
2023-04-13T21:12:19.636Z,112.07
2023-04-13T21:14:47.846Z,101.68
2023-04-13T21:17:16.328Z,59.42
2023-04-13T21:19:44.687Z,84.55
2023-04-13T21:22:12.961Z,119.63
2023-04-13T21:24:41.414Z,170.75
2023-04-13T21:27:09.737Z,178.10
2023-04-13T21:29:38.020Z,150.63
2023-04-13T21:32:06.591Z,172.70
2023-04-13T21:34:35.129Z,165.25
2023-04-13T21:37:03.422Z,144.88
2023-04-13T21:39:31.949Z,151.75
2023-04-13T21:42:00.265Z,114.63
2023-04-13T21:44:30.283Z,51.35
2023-04-13T21:46:59.290Z,47.63
2023-04-13T21:49:27.811Z,52.20
2023-04-13T21:51:56.031Z,57.25
2023-04-13T21:54:24.483Z,58.97
2023-04-13T21:56:53.130Z,76.32
2023-04-13T21:59:21.344Z,74.90
2023-04-13T22:01:49.872Z,91.75
2023-04-13T22:04:19.636Z,78.82
2023-04-13T22:06:48.043Z,59.17
2023-04-13T22:09:16.342Z,60.97
2023-04-13T22:11:44.645Z,73.00
2023-04-13T22:14:14.333Z,91.82
2023-04-13T22:16:42.414Z,102.97
2023-04-13T22:19:10.661Z,62.63
2023-04-13T22:21:38.967Z,88.05
2023-04-13T22:24:07.235Z,69.55
2023-04-13T22:26:35.293Z,49.85
2023-04-13T22:29:03.623Z,55.65
2023-04-13T22:31:31.838Z,59.78
2023-04-13T22:34:00.419Z,61.15
2023-04-13T22:36:28.778Z,55.88
2023-04-13T22:38:56.981Z,78.32
2023-04-13T22:41:25.110Z,79.43
2023-04-13T22:43:53.358Z,106.22
2023-04-13T22:46:21.564Z,100.03
2023-04-13T22:48:49.782Z,101.53
2023-04-13T22:51:18.218Z,98.93
2023-04-13T22:53:48.783Z,104.20
2023-04-13T22:56:17.198Z,71.38
2023-04-13T22:58:45.520Z,70.40
2023-04-13T23:01:13.758Z,62.47
2023-04-13T23:03:42.105Z,74.65
2023-04-13T23:06:10.547Z,90.22
2023-04-13T23:08:38.656Z,75.63
2023-04-13T23:11:10.877Z,84.38
2023-04-13T23:13:39.184Z,70.75
2023-04-13T23:16:07.597Z,75.80
2023-04-13T23:18:35.986Z,46.28
2023-04-13T23:21:11.515Z,59.97
2023-04-13T23:23:40.691Z,43.13
2023-04-13T23:26:08.797Z,46.83
2023-04-13T23:28:36.950Z,52.03
2023-04-13T23:31:09.287Z,53.60
2023-04-13T23:33:37.486Z,50.70
2023-04-13T23:36:06.120Z,49.13
2023-04-13T23:38:34.482Z,47.83
2023-04-13T23:41:02.625Z,44.97
2023-04-13T23:43:30.843Z,44.97
2023-04-13T23:45:59.246Z,48.28
2023-04-13T23:48:27.434Z,41.30
2023-04-13T23:50:55.596Z,41.10
2023-04-13T23:53:23.974Z,48.55
2023-04-13T23:55:52.039Z,55.80
2023-04-13T23:58:20.357Z,57.08
